Time;durP1;ratioP1;P1;durP2;ratioP2;P2;SDS_P1;SDS_P2;PMS_P1;PMS_P2;Temp;Humidity;BMP_temperature;BMP_pressure;BME280_temperature;BME280_humidity;BME280_pressure;Samples;Min_cycle;Max_cycle;Signal;HPM_P1;HPM_P2
2023/04/06 00:01:38;;;;;;;3.80;2.55;;;3.80;92.50;;;;;;4932384;29;20034;-64
2023/04/06 00:04:04;;;;;;;4.68;2.30;;;3.80;92.70;;;;;;4948411;29;20040;-64
2023/04/06 00:06:30;;;;;;;6.68;2.40;;;3.80;92.70;;;;;;4950299;29;20028;-65
2023/04/06 00:08:57;;;;;;;6.13;2.78;;;3.70;92.80;;;;;;4952966;29;20051;-64
2023/04/06 00:11:23;;;;;;;5.53;2.58;;;3.70;92.50;;;;;;4946944;29;20117;-64
2023/04/06 00:13:49;;;;;;;3.95;2.60;;;3.70;92.40;;;;;;4949332;29;20156;-64
2023/04/06 00:16:14;;;;;;;7.80;2.88;;;3.70;92.30;;;;;;4947976;29;20055;-64
2023/04/06 00:18:40;;;;;;;5.68;3.38;;;3.60;92.20;;;;;;4949145;28;20098;-64
2023/04/06 00:21:06;;;;;;;7.90;3.60;;;3.60;91.70;;;;;;4950538;29;20042;-64
2023/04/06 00:23:32;;;;;;;7.43;3.35;;;3.50;91.40;;;;;;4951180;29;20035;-64
2023/04/06 00:25:58;;;;;;;7.18;3.90;;;3.50;91.50;;;;;;4950562;29;20138;-63
2023/04/06 00:28:28;;;;;;;7.90;3.13;;;3.40;92.10;;;;;;4946553;29;20411;-64
2023/04/06 00:30:55;;;;;;;5.07;2.92;;;3.40;92.60;;;;;;4931515;29;20142;-65
2023/04/06 00:33:22;;;;;;;3.58;2.67;;;3.30;92.90;;;;;;4933634;29;20434;-64
2023/04/06 00:35:48;;;;;;;3.40;2.63;;;3.30;93.20;;;;;;4947145;29;20122;-64
2023/04/06 00:38:15;;;;;;;5.15;2.60;;;3.30;93.40;;;;;;4934513;28;20042;-64
2023/04/06 00:40:44;;;;;;;5.00;3.08;;;3.30;93.50;;;;;;4947389;29;20023;-65
2023/04/06 00:43:10;;;;;;;6.13;2.60;;;3.20;93.30;;;;;;4949227;29;20035;-65
2023/04/06 00:45:38;;;;;;;5.53;2.35;;;3.20;93.20;;;;;;4932373;29;20086;-64
2023/04/06 00:48:05;;;;;;;5.32;3.03;;;3.20;93.30;;;;;;4932838;28;20038;-64
2023/04/06 00:50:31;;;;;;;3.97;2.65;;;3.20;93.20;;;;;;4932673;29;20039;-64
2023/04/06 00:52:57;;;;;;;4.88;2.78;;;3.20;93.50;;;;;;4948263;28;20035;-64
2023/04/06 00:55:29;;;;;;;9.82;3.45;;;3.20;93.70;;;;;;4932966;29;20513;-64
2023/04/06 00:57:59;;;;;;;6.20;2.30;;;3.20;93.90;;;;;;4929590;29;20031;-64
2023/04/06 01:00:25;;;;;;;5.38;2.63;;;3.20;93.80;;;;;;4932922;29;20045;-64
2023/04/06 01:02:56;;;;;;;5.43;2.45;;;3.10;94.00;;;;;;4932659;29;20033;-64
2023/04/06 01:05:29;;;;;;;3.85;1.98;;;3.20;94.20;;;;;;4931214;29;20075;-64
2023/04/06 01:07:57;;;;;;;5.05;2.58;;;3.10;94.40;;;;;;4948009;29;20570;-64
2023/04/06 01:10:28;;;;;;;3.63;2.38;;;3.10;94.70;;;;;;4932760;29;20042;-64
2023/04/06 01:13:03;;;;;;;5.93;2.72;;;3.10;95.10;;;;;;4936166;29;20043;-64
2023/04/06 01:15:50;;;;;;;6.38;3.20;;;3.00;95.40;;;;;;4953410;29;20053;-64
2023/04/06 01:18:26;;;;;;;5.22;2.55;;;3.00;95.50;;;;;;4935540;29;20091;-64
2023/04/06 01:20:59;;;;;;;4.22;2.60;;;3.00;95.30;;;;;;4933923;29;20043;-65
2023/04/06 01:23:26;;;;;;;6.57;2.80;;;3.00;95.30;;;;;;4950770;29;20898;-64
2023/04/06 01:25:52;;;;;;;5.65;2.63;;;3.00;95.10;;;;;;4948912;29;20046;-64
2023/04/06 01:28:19;;;;;;;3.35;2.20;;;3.00;95.10;;;;;;4933036;29;20031;-64
2023/04/06 01:30:57;;;;;;;4.47;2.13;;;3.00;95.00;;;;;;4933351;29;20486;-64
2023/04/06 01:33:41;;;;;;;5.30;2.63;;;2.90;94.70;;;;;;4931157;29;20034;-64
2023/04/06 01:36:11;;;;;;;7.25;3.13;;;2.90;94.60;;;;;;4932465;29;20062;-64
2023/04/06 01:38:38;;;;;;;5.90;2.80;;;2.90;94.60;;;;;;4931841;29;20054;-64
2023/04/06 01:41:04;;;;;;;5.07;2.55;;;2.90;94.80;;;;;;4932769;29;20927;-64
2023/04/06 01:43:37;;;;;;;4.22;2.88;;;2.90;94.90;;;;;;4928405;29;20079;-64
2023/04/06 01:46:06;;;;;;;5.38;3.00;;;2.80;95.10;;;;;;4937390;28;20039;-64
2023/04/06 01:48:38;;;;;;;5.07;3.20;;;2.80;95.30;;;;;;4950851;28;20058;-64
2023/04/06 01:51:27;;;;;;;6.72;2.97;;;2.70;95.20;;;;;;4935827;29;20038;-64
2023/04/06 01:54:00;;;;;;;6.03;3.45;;;2.70;95.20;;;;;;4932691;28;20110;-64
2023/04/06 01:56:50;;;;;;;5.35;2.90;;;2.70;95.10;;;;;;4941885;28;20047;-63
2023/04/06 01:59:42;;;;;;;6.10;2.90;;;2.70;95.10;;;;;;4933017;28;20035;-64
2023/04/06 02:02:19;;;;;;;4.75;3.00;;;2.70;95.30;;;;;;4929159;28;20063;-64
2023/04/06 02:04:55;;;;;;;7.43;2.95;;;2.60;95.50;;;;;;4928694;29;20023;-64
2023/04/06 02:07:21;;;;;;;6.75;3.33;;;2.60;95.50;;;;;;4946065;29;20142;-64
2023/04/06 02:09:47;;;;;;;5.63;3.20;;;2.60;95.30;;;;;;4934292;29;20166;-64
2023/04/06 02:12:22;;;;;;;6.57;2.85;;;2.60;95.60;;;;;;4931426;29;20039;-64
2023/04/06 02:14:47;;;;;;;6.60;3.15;;;2.60;95.80;;;;;;4932456;29;20543;-64
2023/04/06 02:17:13;;;;;;;5.30;2.67;;;2.60;95.80;;;;;;4932532;29;20063;-64
2023/04/06 02:19:39;;;;;;;3.72;2.55;;;2.60;96.00;;;;;;4932643;29;20470;-64
2023/04/06 02:22:05;;;;;;;4.53;2.92;;;2.60;96.00;;;;;;4932267;29;20063;-64
2023/04/06 02:24:32;;;;;;;6.13;2.78;;;2.60;95.80;;;;;;4929925;29;20574;-64
2023/04/06 02:26:58;;;;;;;6.88;2.95;;;2.60;95.50;;;;;;4932174;29;20027;-64
2023/04/06 02:29:23;;;;;;;5.88;2.92;;;2.60;95.30;;;;;;4931202;29;20036;-64
2023/04/06 02:31:50;;;;;;;6.15;2.92;;;2.60;95.70;;;;;;4931780;29;20122;-64
2023/04/06 02:34:19;;;;;;;5.22;2.88;;;2.50;96.00;;;;;;4931022;29;20179;-64
2023/04/06 02:36:49;;;;;;;5.32;3.05;;;2.50;96.10;;;;;;4930004;29;20038;-64
2023/04/06 02:39:15;;;;;;;9.48;2.88;;;2.50;96.10;;;;;;4931833;29;20134;-64
2023/04/06 02:41:41;;;;;;;9.02;2.67;;;2.50;96.20;;;;;;4934170;29;20055;-64
2023/04/06 02:44:08;;;;;;;4.40;2.78;;;2.50;96.30;;;;;;4934148;29;20027;-64
2023/04/06 02:46:41;;;;;;;5.28;3.00;;;2.50;96.20;;;;;;4946283;29;20499;-65
2023/04/06 02:49:07;;;;;;;5.22;2.70;;;2.50;96.30;;;;;;4934934;29;20041;-64
2023/04/06 02:51:34;;;;;;;4.25;2.67;;;2.50;96.30;;;;;;4951879;29;20117;-64
2023/04/06 02:54:12;;;;;;;5.47;2.90;;;2.40;96.30;;;;;;4933554;28;20035;-64
2023/04/06 02:56:38;;;;;;;4.28;2.78;;;2.50;96.50;;;;;;4931429;29;20050;-63
2023/04/06 02:59:04;;;;;;;5.38;2.35;;;2.40;96.60;;;;;;4931587;29;20051;-64
2023/04/06 03:01:32;;;;;;;4.68;2.75;;;2.40;96.70;;;;;;4931771;29;20046;-64
2023/04/06 03:04:02;;;;;;;5.32;2.88;;;2.40;96.40;;;;;;4933854;29;20483;-64
2023/04/06 03:06:30;;;;;;;5.55;3.20;;;2.40;96.30;;;;;;4930426;28;20027;-64
2023/04/06 03:09:01;;;;;;;6.30;2.67;;;2.40;96.40;;;;;;4947247;28;20031;-64
2023/04/06 03:11:27;;;;;;;5.45;2.72;;;2.30;96.40;;;;;;4934590;28;20042;-64
2023/04/06 03:13:53;;;;;;;4.47;2.65;;;2.30;96.00;;;;;;4933231;29;20031;-64
2023/04/06 03:16:19;;;;;;;7.18;2.90;;;2.30;95.80;;;;;;4933985;29;20039;-64
2023/04/06 03:18:46;;;;;;;6.25;2.80;;;2.20;96.20;;;;;;4939205;29;20609;-65
2023/04/06 03:21:15;;;;;;;7.20;2.80;;;2.20;96.50;;;;;;4947323;28;20051;-64
2023/04/06 03:23:50;;;;;;;7.00;2.88;;;2.30;96.50;;;;;;4935280;29;20027;-64
2023/04/06 03:26:16;;;;;;;3.97;2.80;;;2.30;96.50;;;;;;4938428;29;20115;-64
2023/04/06 03:28:42;;;;;;;6.72;2.83;;;2.20;96.60;;;;;;4941718;28;20034;-64
2023/04/06 03:31:08;;;;;;;6.13;3.13;;;2.20;96.40;;;;;;4938191;28;20791;-65
2023/04/06 03:33:56;;;;;;;6.32;3.28;;;2.20;96.40;;;;;;4941867;28;20047;-64
2023/04/06 03:36:27;;;;;;;5.38;2.83;;;2.20;96.40;;;;;;4929608;29;20036;-64
2023/04/06 03:38:55;;;;;;;5.78;2.95;;;2.20;96.40;;;;;;4949218;28;20027;-64
2023/04/06 03:41:21;;;;;;;7.53;3.35;;;2.20;96.50;;;;;;4941654;28;20042;-64
2023/04/06 03:43:55;;;;;;;4.07;2.88;;;2.20;96.50;;;;;;4935010;29;20126;-64
2023/04/06 03:46:21;;;;;;;6.35;3.15;;;2.20;96.30;;;;;;4934001;28;20043;-64
2023/04/06 03:48:51;;;;;;;6.68;3.42;;;2.20;96.30;;;;;;4932948;29;20038;-64
2023/04/06 03:51:19;;;;;;;9.05;4.28;;;2.20;96.40;;;;;;4933490;28;20035;-64
2023/04/06 03:53:45;;;;;;;10.88;4.28;;;2.20;96.40;;;;;;4930713;29;20042;-64
2023/04/06 03:56:10;;;;;;;7.35;3.85;;;2.10;96.30;;;;;;4951425;29;20487;-64
2023/04/06 03:58:36;;;;;;;10.65;4.18;;;2.10;96.40;;;;;;4948263;29;20554;-64
2023/04/06 04:01:02;;;;;;;7.53;3.08;;;2.00;96.50;;;;;;4938568;29;20067;-64
2023/04/06 04:03:28;;;;;;;4.43;2.90;;;2.00;96.50;;;;;;4947843;29;20023;-64
2023/04/06 04:05:56;;;;;;;5.93;3.25;;;2.00;96.80;;;;;;4945799;29;20127;-64
2023/04/06 04:08:24;;;;;;;5.07;3.38;;;2.00;96.90;;;;;;4927078;29;20554;-64
2023/04/06 04:10:50;;;;;;;5.47;3.22;;;2.00;96.80;;;;;;4932693;29;20094;-64
2023/04/06 04:13:17;;;;;;;6.45;3.00;;;2.00;96.80;;;;;;4943417;29;20035;-64
2023/04/06 04:15:47;;;;;;;5.28;3.00;;;2.00;96.80;;;;;;4929524;29;20916;-64
2023/04/06 04:18:13;;;;;;;8.40;4.18;;;2.00;97.20;;;;;;4947952;28;20057;-64
2023/04/06 04:20:39;;;;;;;12.02;3.70;;;2.10;97.30;;;;;;4927508;29;20036;-64
2023/04/06 04:23:06;;;;;;;6.57;3.50;;;2.00;97.20;;;;;;4930322;29;20150;-64
2023/04/06 04:25:33;;;;;;;6.45;3.50;;;2.10;97.50;;;;;;4943130;28;20424;-64
2023/04/06 04:27:59;;;;;;;6.78;3.60;;;2.10;97.80;;;;;;4934770;29;20031;-65
2023/04/06 04:30:25;;;;;;;6.65;3.20;;;2.10;97.80;;;;;;4931537;29;20050;-64
2023/04/06 04:32:51;;;;;;;6.07;3.63;;;2.10;97.90;;;;;;4947079;28;20105;-64
2023/04/06 04:35:20;;;;;;;7.75;3.55;;;2.10;97.70;;;;;;4932571;28;20057;-64
2023/04/06 04:37:46;;;;;;;8.52;3.95;;;2.10;98.00;;;;;;4931891;28;20039;-64
2023/04/06 04:40:11;;;;;;;10.77;4.03;;;2.10;98.20;;;;;;4947109;28;20634;-64
2023/04/06 04:42:50;;;;;;;7.50;3.83;;;2.10;98.20;;;;;;4949370;28;20038;-64
2023/04/06 04:45:25;;;;;;;8.27;3.75;;;2.00;98.20;;;;;;4949776;28;20039;-64
2023/04/06 04:47:52;;;;;;;8.52;3.72;;;2.00;98.30;;;;;;4928298;29;20039;-64
2023/04/06 04:50:19;;;;;;;5.63;3.50;;;2.00;98.20;;;;;;4946862;28;20073;-64
2023/04/06 04:52:48;;;;;;;5.43;3.38;;;2.00;98.20;;;;;;4931177;28;20035;-64
2023/04/06 04:55:21;;;;;;;7.20;3.92;;;2.00;98.40;;;;;;4931288;28;20034;-64
2023/04/06 04:57:51;;;;;;;7.22;3.30;;;2.00;98.50;;;;;;4928191;29;20047;-64
2023/04/06 05:00:22;;;;;;;6.45;3.92;;;2.00;98.40;;;;;;4944239;28;20027;-64
2023/04/06 05:02:49;;;;;;;5.45;3.80;;;2.10;98.30;;;;;;4934910;29;20034;-64
2023/04/06 05:05:19;;;;;;;8.43;3.75;;;2.10;98.10;;;;;;4929630;29;20138;-64
2023/04/06 05:07:45;;;;;;;5.07;3.40;;;2.20;98.10;;;;;;4930254;29;20130;-64
2023/04/06 05:10:20;;;;;;;6.30;3.97;;;2.10;98.00;;;;;;4927552;28;20031;-64
2023/04/06 05:12:53;;;;;;;5.75;3.50;;;2.10;98.10;;;;;;4931082;28;20035;-64
2023/04/06 05:15:19;;;;;;;7.50;3.92;;;2.20;98.20;;;;;;4927072;28;20072;-64
2023/04/06 05:17:47;;;;;;;9.13;3.85;;;2.20;98.10;;;;;;4932774;29;20055;-65
2023/04/06 05:20:18;;;;;;;6.35;3.67;;;2.30;98.20;;;;;;4926460;28;20775;-64
2023/04/06 05:22:48;;;;;;;8.82;3.85;;;2.20;98.10;;;;;;4928595;29;20554;-64
2023/04/06 05:25:15;;;;;;;6.07;3.85;;;2.20;98.30;;;;;;4932662;28;20032;-64
2023/04/06 05:27:41;;;;;;;6.63;3.92;;;2.30;98.40;;;;;;4946084;28;20061;-64
2023/04/06 05:30:19;;;;;;;7.28;3.75;;;2.30;98.60;;;;;;4929104;28;20087;-64
2023/04/06 05:32:47;;;;;;;8.05;4.40;;;2.40;98.70;;;;;;4947121;28;20530;-64
2023/04/06 05:35:14;;;;;;;5.30;3.65;;;2.50;98.50;;;;;;4927642;28;20129;-65
2023/04/06 05:37:44;;;;;;;7.32;3.97;;;2.50;98.40;;;;;;4930240;29;20031;-63
2023/04/06 05:40:10;;;;;;;9.63;4.68;;;2.60;98.40;;;;;;4933652;29;20031;-65
2023/04/06 05:42:41;;;;;;;7.03;4.05;;;2.60;98.30;;;;;;4951860;28;20038;-64
2023/04/06 05:45:08;;;;;;;10.38;4.43;;;2.70;98.30;;;;;;4935893;29;20027;-65
2023/04/06 05:47:34;;;;;;;9.60;4.15;;;2.80;98.10;;;;;;4937157;29;20082;-64
2023/04/06 05:50:09;;;;;;;6.03;3.80;;;2.90;97.80;;;;;;4943403;28;20574;-64
2023/04/06 05:52:37;;;;;;;7.78;4.53;;;3.00;97.90;;;;;;4935481;29;20034;-64
2023/04/06 05:55:04;;;;;;;6.45;4.05;;;3.10;97.50;;;;;;4948496;28;20035;-64
2023/04/06 05:57:31;;;;;;;11.82;3.67;;;3.20;97.70;;;;;;4932766;29;20060;-64
2023/04/06 05:59:56;;;;;;;8.27;3.95;;;3.40;96.90;;;;;;4934490;29;20031;-64
2023/04/06 06:02:27;;;;;;;6.97;3.72;;;3.70;96.10;;;;;;4948387;28;20066;-63
2023/04/06 06:04:53;;;;;;;11.77;4.05;;;4.00;95.40;;;;;;4928127;29;20039;-63
2023/04/06 06:07:19;;;;;;;5.72;3.72;;;4.40;94.70;;;;;;4930746;29;20272;-63
2023/04/06 06:09:58;;;;;;;7.38;3.50;;;4.90;93.60;;;;;;4944497;28;20066;-64
2023/04/06 06:12:29;;;;;;;8.63;3.70;;;5.60;92.40;;;;;;4947833;28;20034;-64
2023/04/06 06:14:55;;;;;;;6.53;3.80;;;6.10;90.50;;;;;;4930505;28;20035;-64
2023/04/06 06:17:23;;;;;;;7.97;3.97;;;6.70;88.90;;;;;;4931528;28;20027;-64
2023/04/06 06:19:50;;;;;;;7.25;3.75;;;7.40;86.40;;;;;;4934347;29;20031;-64
2023/04/06 06:22:16;;;;;;;6.22;3.20;;;8.40;81.50;;;;;;4933669;28;20035;-64
2023/04/06 06:24:45;;;;;;;9.00;3.58;;;9.20;76.00;;;;;;4931286;29;20676;-64
2023/04/06 06:27:11;;;;;;;5.47;3.67;;;9.60;71.90;;;;;;4933880;28;20901;-64
2023/04/06 06:29:38;;;;;;;8.13;3.58;;;9.50;70.20;;;;;;4928709;29;20031;-64
2023/04/06 06:32:04;;;;;;;6.10;3.42;;;9.10;70.70;;;;;;4925777;29;20039;-64
2023/04/06 06:34:30;;;;;;;6.30;3.10;;;8.50;72.90;;;;;;4923462;28;20031;-64
2023/04/06 06:36:59;;;;;;;5.40;3.47;;;8.20;74.50;;;;;;4924921;29;20027;-64
2023/04/06 06:39:25;;;;;;;6.50;3.50;;;7.80;75.70;;;;;;4927436;28;20754;-64
2023/04/06 06:41:51;;;;;;;7.50;4.00;;;7.90;76.60;;;;;;4942589;28;20031;-64
2023/04/06 06:44:21;;;;;;;8.68;4.03;;;8.40;75.50;;;;;;4923095;29;20031;-64
2023/04/06 06:46:47;;;;;;;7.13;3.42;;;9.50;72.10;;;;;;4940846;29;20042;-64
2023/04/06 06:49:14;;;;;;;9.32;3.63;;;10.60;68.80;;;;;;4939379;28;20039;-64
2023/04/06 06:51:40;;;;;;;7.53;4.18;;;11.30;65.00;;;;;;4941079;28;20062;-64
2023/04/06 06:54:06;;;;;;;7.57;3.60;;;11.50;62.40;;;;;;4926096;29;20038;-64
2023/04/06 06:56:32;;;;;;;5.53;3.90;;;11.70;61.10;;;;;;4926463;28;20705;-64
2023/04/06 06:58:58;;;;;;;9.43;3.83;;;11.70;60.90;;;;;;4923929;29;20063;-64
2023/04/06 07:01:24;;;;;;;6.20;3.42;;;11.70;60.70;;;;;;4924719;28;20042;-64
2023/04/06 07:03:50;;;;;;;6.43;3.65;;;11.70;60.80;;;;;;4942029;28;20031;-64
2023/04/06 07:06:16;;;;;;;8.23;3.53;;;11.80;60.00;;;;;;4925761;28;20213;-64
2023/04/06 07:08:41;;;;;;;7.40;3.75;;;11.90;59.30;;;;;;4942376;28;20031;-64
2023/04/06 07:11:07;;;;;;;6.20;3.10;;;12.00;59.60;;;;;;4920720;29;20031;-64
2023/04/06 07:13:34;;;;;;;5.57;3.28;;;12.30;56.10;;;;;;4940874;28;20197;-65
2023/04/06 07:16:01;;;;;;;5.10;2.70;;;12.80;54.60;;;;;;4925671;29;20043;-67
2023/04/06 07:18:28;;;;;;;5.72;3.05;;;12.90;53.10;;;;;;4923389;29;20495;-65
2023/04/06 07:20:53;;;;;;;5.78;2.80;;;13.30;52.50;;;;;;4925572;29;20027;-65
2023/04/06 07:23:19;;;;;;;5.63;2.90;;;13.80;51.40;;;;;;4942740;28;20085;-64
2023/04/06 07:25:45;;;;;;;5.22;3.08;;;14.40;49.50;;;;;;4925800;29;20046;-65
2023/04/06 07:28:11;;;;;;;5.60;2.90;;;14.70;49.70;;;;;;4944032;28;20155;-65
2023/04/06 07:30:37;;;;;;;5.20;2.92;;;14.80;49.40;;;;;;4945117;28;20106;-65
2023/04/06 07:33:05;;;;;;;4.72;2.72;;;14.70;48.20;;;;;;4928900;29;20578;-65
2023/04/06 07:35:32;;;;;;;5.20;2.80;;;14.50;49.20;;;;;;4927040;28;20035;-65
2023/04/06 07:37:58;;;;;;;3.55;2.40;;;14.20;48.70;;;;;;4926091;28;20802;-65
2023/04/06 07:40:25;;;;;;;6.70;3.00;;;14.10;48.90;;;;;;4942474;28;20035;-65
2023/04/06 07:42:52;;;;;;;4.35;2.83;;;14.00;50.50;;;;;;4942631;28;20023;-65
2023/04/06 07:45:18;;;;;;;5.28;2.90;;;13.70;50.00;;;;;;4922611;29;20035;-65
2023/04/06 07:47:45;;;;;;;3.72;2.63;;;13.70;49.90;;;;;;4943640;29;20039;-65
2023/04/06 07:50:11;;;;;;;4.68;2.88;;;13.50;48.50;;;;;;4928566;29;20058;-65
2023/04/06 07:52:38;;;;;;;4.97;2.67;;;13.50;50.30;;;;;;4943804;29;20031;-65
2023/04/06 07:55:04;;;;;;;5.20;2.65;;;13.50;50.60;;;;;;4924071;29;20146;-65
2023/04/06 07:57:30;;;;;;;3.60;2.45;;;13.60;49.40;;;;;;4942026;29;20503;-65
2023/04/06 07:59:56;;;;;;;6.65;2.72;;;13.50;49.20;;;;;;4944665;29;20027;-65
2023/04/06 08:02:21;;;;;;;2.78;2.00;;;13.60;49.80;;;;;;4945722;28;20027;-65
2023/04/06 08:04:47;;;;;;;5.85;2.70;;;13.70;48.50;;;;;;4942646;29;20038;-65
2023/04/06 08:07:13;;;;;;;4.45;2.10;;;14.00;48.30;;;;;;4943317;28;20094;-65
2023/04/06 08:09:39;;;;;;;3.60;2.10;;;14.20;46.40;;;;;;4944651;28;20117;-65
2023/04/06 08:12:05;;;;;;;4.13;2.22;;;14.40;46.50;;;;;;4945599;28;20564;-65
2023/04/06 08:14:31;;;;;;;3.60;1.92;;;14.70;46.50;;;;;;4941960;28;20071;-65
2023/04/06 08:16:57;;;;;;;4.10;2.25;;;14.90;45.40;;;;;;4944016;28;20031;-65
2023/04/06 08:19:23;;;;;;;4.57;2.05;;;14.70;45.20;;;;;;4943844;28;20484;-65
2023/04/06 08:21:48;;;;;;;3.67;1.70;;;14.60;45.80;;;;;;4941856;29;20034;-65
2023/04/06 08:24:15;;;;;;;4.57;2.55;;;14.80;44.40;;;;;;4945827;28;20040;-65
2023/04/06 08:26:41;;;;;;;3.72;2.35;;;15.20;44.90;;;;;;4946456;28;20800;-65
2023/04/06 08:29:10;;;;;;;4.50;2.47;;;15.50;42.80;;;;;;4945384;28;20186;-65
2023/04/06 08:31:36;;;;;;;5.57;2.20;;;15.80;42.20;;;;;;4943078;29;20078;-65
2023/04/06 08:34:04;;;;;;;4.07;2.30;;;16.00;42.50;;;;;;4941227;28;20034;-65
2023/04/06 08:36:30;;;;;;;4.25;2.03;;;16.10;41.80;;;;;;4945465;28;20035;-65
2023/04/06 08:38:56;;;;;;;6.05;2.25;;;15.80;42.00;;;;;;4947538;28;20051;-65
2023/04/06 08:41:22;;;;;;;3.95;2.63;;;15.30;41.10;;;;;;4943812;28;20070;-65
2023/04/06 08:43:57;;;;;;;4.60;2.10;;;14.80;43.30;;;;;;4943346;28;20043;-65
2023/04/06 08:46:29;;;;;;;3.47;2.20;;;14.80;43.40;;;;;;4943658;28;20043;-65
2023/04/06 08:48:59;;;;;;;4.68;2.80;;;15.10;43.50;;;;;;4938788;28;20054;-65
2023/04/06 08:51:27;;;;;;;5.88;2.35;;;15.40;41.80;;;;;;4928526;28;20101;-65
2023/04/06 08:53:54;;;;;;;4.93;2.30;;;15.70;41.90;;;;;;4941405;28;20035;-65
2023/04/06 08:56:22;;;;;;;4.55;2.05;;;16.00;41.70;;;;;;4943091;28;20433;-65
2023/04/06 08:58:48;;;;;;;3.00;2.08;;;15.80;40.60;;;;;;4937819;28;20043;-65
2023/04/06 09:01:17;;;;;;;2.83;1.88;;;15.80;41.30;;;;;;4945452;28;20723;-65
2023/04/06 09:03:45;;;;;;;2.92;2.00;;;16.20;38.20;;;;;;4943282;28;20031;-65
2023/04/06 09:06:12;;;;;;;3.63;2.00;;;16.60;39.00;;;;;;4940117;28;20508;-65
2023/04/06 09:08:40;;;;;;;3.97;2.42;;;17.10;39.50;;;;;;4942576;28;20027;-65
2023/04/06 09:11:07;;;;;;;6.00;2.13;;;17.50;38.20;;;;;;4941698;28;20774;-65
2023/04/06 09:13:48;;;;;;;9.48;2.20;;;17.50;37.40;;;;;;4944447;28;20078;-65
2023/04/06 09:16:15;;;;;;;4.43;1.88;;;17.00;37.60;;;;;;4941273;28;20055;-66
2023/04/06 09:18:41;;;;;;;4.15;1.85;;;16.50;37.80;;;;;;4943956;28;20039;-66
2023/04/06 09:21:08;;;;;;;4.97;2.25;;;16.00;38.80;;;;;;4938000;28;20429;-66
2023/04/06 09:23:34;;;;;;;4.38;2.13;;;15.80;40.20;;;;;;4943924;28;20052;-65
2023/04/06 09:26:27;;;;;;;4.82;2.00;;;15.90;40.90;;;;;;4940925;28;20051;-65
2023/04/06 09:28:54;;;;;;;3.88;2.35;;;15.50;41.60;;;;;;4936307;28;20447;-65
2023/04/06 09:31:26;;;;;;;3.70;2.10;;;15.50;41.30;;;;;;4942994;28;20054;-65
2023/04/06 09:33:52;;;;;;;2.55;1.80;;;15.70;39.80;;;;;;4943731;28;20035;-66
2023/04/06 09:36:19;;;;;;;3.33;1.67;;;15.80;39.70;;;;;;4943639;28;20826;-65
2023/04/06 09:38:57;;;;;;;4.47;2.30;;;16.10;39.50;;;;;;4945735;28;20089;-65
2023/04/06 09:41:24;;;;;;;3.65;2.38;;;16.20;39.80;;;;;;4942164;28;20046;-65
2023/04/06 09:44:07;;;;;;;4.10;2.70;;;16.00;39.70;;;;;;4944242;28;20035;-65
2023/04/06 09:46:35;;;;;;;4.30;2.88;;;15.50;39.10;;;;;;4943283;28;20031;-65
2023/04/06 09:49:04;;;;;;;5.78;2.67;;;15.10;41.00;;;;;;4943643;28;20034;-65
2023/04/06 09:51:37;;;;;;;4.20;3.00;;;14.80;40.50;;;;;;4943624;28;20074;-65
2023/04/06 09:54:04;;;;;;;2.70;2.45;;;14.70;40.10;;;;;;4944180;28;20042;-65
2023/04/06 09:56:58;;;;;;;4.35;2.95;;;15.10;40.20;;;;;;4941782;28;20627;-66
2023/04/06 09:59:50;;;;;;;4.47;3.00;;;15.80;38.70;;;;;;4907683;29;20122;-65
2023/04/06 10:02:34;;;;;;;3.85;2.92;;;16.00;39.20;;;;;;4941464;29;20110;-65
2023/04/06 10:05:04;;;;;;;5.13;2.60;;;16.60;38.80;;;;;;4938937;29;20035;-66
2023/04/06 10:07:31;;;;;;;3.65;2.53;;;16.90;37.20;;;;;;4937020;28;20035;-66
2023/04/06 10:10:00;;;;;;;5.05;2.90;;;17.00;39.60;;;;;;4942021;28;20553;-65
2023/04/06 10:12:26;;;;;;;4.07;2.42;;;16.90;37.20;;;;;;4944328;28;20062;-65
2023/04/06 10:14:52;;;;;;;2.78;2.22;;;16.10;37.30;;;;;;4940430;29;20043;-65
2023/04/06 10:17:18;;;;;;;2.92;2.00;;;15.90;38.90;;;;;;4943613;28;20043;-65
2023/04/06 10:19:52;;;;;;;2.40;2.10;;;16.10;38.20;;;;;;4941115;28;20036;-66
2023/04/06 10:22:43;;;;;;;3.00;2.10;;;16.20;37.80;;;;;;4941368;28;20035;-65
2023/04/06 10:25:09;;;;;;;2.97;2.15;;;16.00;37.20;;;;;;4938386;28;20400;-65
2023/04/06 10:27:35;;;;;;;6.78;2.72;;;16.20;39.30;;;;;;4942414;28;20042;-65
2023/04/06 10:30:03;;;;;;;3.80;2.53;;;16.60;36.00;;;;;;4942928;28;20602;-65
2023/04/06 10:32:37;;;;;;;3.08;2.67;;;16.70;39.80;;;;;;4942616;28;20122;-65
2023/04/06 10:35:10;;;;;;;3.17;2.15;;;16.80;38.90;;;;;;4942847;28;20467;-65
2023/04/06 10:37:50;;;;;;;3.83;2.40;;;17.00;35.60;;;;;;4928249;29;20115;-65
2023/04/06 10:40:26;;;;;;;3.72;2.40;;;17.10;37.80;;;;;;4941446;29;20061;-65
2023/04/06 10:42:54;;;;;;;4.20;2.40;;;16.90;38.20;;;;;;4941895;29;20040;-65
2023/04/06 10:45:21;;;;;;;4.43;2.90;;;16.40;37.10;;;;;;4939517;29;20778;-65
2023/04/06 10:47:47;;;;;;;3.28;2.67;;;15.70;38.00;;;;;;4941095;28;20031;-65
2023/04/06 10:50:19;;;;;;;4.53;3.15;;;15.20;40.20;;;;;;4944305;28;20538;-64
2023/04/06 10:52:48;;;;;;;8.73;2.58;;;14.90;43.50;;;;;;4941345;28;20043;-65
2023/04/06 10:55:15;;;;;;;2.80;2.22;;;15.10;38.60;;;;;;4941438;28;20042;-65
2023/04/06 10:57:41;;;;;;;4.18;2.33;;;15.50;36.70;;;;;;4943436;28;20674;-65
2023/04/06 11:00:09;;;;;;;3.53;1.92;;;15.70;37.30;;;;;;4942145;29;20063;-65
2023/04/06 11:02:37;;;;;;;5.00;2.70;;;15.50;38.70;;;;;;4946551;28;20031;-65
2023/04/06 11:05:03;;;;;;;5.63;2.47;;;15.10;39.50;;;;;;4947320;29;20488;-65
2023/04/06 11:07:30;;;;;;;3.15;2.17;;;14.80;38.30;;;;;;4945427;29;20030;-65
2023/04/06 11:09:56;;;;;;;4.18;2.20;;;14.90;39.90;;;;;;4944138;29;20031;-65
2023/04/06 11:12:27;;;;;;;7.32;2.05;;;15.20;41.10;;;;;;4943981;29;20146;-65
2023/04/06 11:15:06;;;;;;;4.28;3.00;;;15.50;38.00;;;;;;4944011;29;20136;-65
2023/04/06 11:17:35;;;;;;;4.75;2.55;;;14.80;40.60;;;;;;4945086;29;20035;-65
2023/04/06 11:20:02;;;;;;;3.28;2.22;;;14.30;39.50;;;;;;4947278;29;20034;-65
2023/04/06 11:22:29;;;;;;;3.70;2.40;;;14.00;38.20;;;;;;4943545;29;20036;-65
2023/04/06 11:25:06;;;;;;;4.15;2.60;;;13.80;40.80;;;;;;4947109;29;20030;-65
2023/04/06 11:27:36;;;;;;;3.67;2.40;;;13.70;39.50;;;;;;4943516;29;20056;-64
2023/04/06 11:30:03;;;;;;;3.25;2.53;;;13.60;41.20;;;;;;4928415;29;20492;-65
2023/04/06 11:32:29;;;;;;;3.60;2.50;;;13.60;41.40;;;;;;4945979;28;20065;-65
2023/04/06 11:34:57;;;;;;;4.13;2.75;;;13.60;40.30;;;;;;4946791;28;20154;-65
2023/04/06 11:37:26;;;;;;;3.92;2.55;;;13.60;40.70;;;;;;4938752;29;20051;-65
2023/04/06 11:39:55;;;;;;;6.18;2.35;;;13.50;39.70;;;;;;4945515;28;20027;-65
2023/04/06 11:42:25;;;;;;;6.97;2.63;;;13.50;40.20;;;;;;4943968;29;20086;-65
2023/04/06 11:44:54;;;;;;;2.95;2.47;;;13.30;41.40;;;;;;4945267;29;20034;-65
2023/04/06 11:47:26;;;;;;;3.97;2.92;;;13.30;40.60;;;;;;4943989;28;20047;-65
2023/04/06 11:49:52;;;;;;;3.35;2.40;;;13.20;40.90;;;;;;4940232;28;20098;-65
2023/04/06 11:52:19;;;;;;;4.00;2.72;;;13.20;42.00;;;;;;4941162;28;20114;-65
2023/04/06 11:54:46;;;;;;;6.60;2.67;;;13.10;40.40;;;;;;4946501;28;20170;-65
2023/04/06 11:57:12;;;;;;;3.42;2.20;;;13.00;41.80;;;;;;4943649;28;20032;-65
2023/04/06 11:59:38;;;;;;;3.88;2.72;;;13.10;41.00;;;;;;4943183;28;20598;-65
2023/04/06 12:02:04;;;;;;;5.85;2.65;;;13.20;41.40;;;;;;4939363;28;20042;-65
2023/04/06 12:04:31;;;;;;;2.63;2.17;;;13.20;41.90;;;;;;4945181;28;20484;-65
2023/04/06 12:06:57;;;;;;;4.78;2.67;;;13.30;41.00;;;;;;4946053;28;20027;-65
2023/04/06 12:09:24;;;;;;;3.45;3.15;;;13.30;41.70;;;;;;4943544;28;20047;-65
2023/04/06 12:11:50;;;;;;;3.22;2.80;;;13.50;41.80;;;;;;4943168;28;20023;-65
2023/04/06 12:14:15;;;;;;;4.07;2.95;;;13.50;41.30;;;;;;4943505;28;20057;-65
2023/04/06 12:16:42;;;;;;;3.05;2.67;;;13.60;42.20;;;;;;4941328;28;20039;-65
2023/04/06 12:19:07;;;;;;;4.25;2.80;;;13.60;39.40;;;;;;4945244;28;20039;-65
2023/04/06 12:21:36;;;;;;;5.35;2.72;;;13.50;40.90;;;;;;4942996;28;20042;-65
2023/04/06 12:24:02;;;;;;;4.55;2.72;;;13.40;40.30;;;;;;4945642;28;20031;-65
2023/04/06 12:26:29;;;;;;;5.05;3.15;;;13.40;39.90;;;;;;4944684;28;20127;-65
2023/04/06 12:28:55;;;;;;;4.47;3.05;;;13.20;40.10;;;;;;4942943;28;20106;-65
2023/04/06 12:31:22;;;;;;;3.38;2.50;;;13.20;43.00;;;;;;4938555;28;20046;-65
2023/04/06 12:33:51;;;;;;;5.57;3.22;;;13.10;40.30;;;;;;4944056;28;20038;-65
2023/04/06 12:36:19;;;;;;;3.17;2.72;;;12.90;40.40;;;;;;4942229;28;20384;-65
2023/04/06 12:38:48;;;;;;;8.90;3.13;;;12.90;41.30;;;;;;4944704;28;20035;-65
2023/04/06 12:41:14;;;;;;;4.60;2.92;;;12.80;42.60;;;;;;4942349;28;20042;-65
2023/04/06 12:43:41;;;;;;;3.55;2.83;;;12.70;43.00;;;;;;4944755;28;20444;-65
2023/04/06 12:46:07;;;;;;;5.03;2.90;;;12.60;43.40;;;;;;4944433;28;20574;-65
2023/04/06 12:48:33;;;;;;;5.28;3.10;;;12.60;44.60;;;;;;4940469;28;20051;-65
2023/04/06 12:51:01;;;;;;;3.67;2.83;;;12.70;43.70;;;;;;4942736;28;20039;-65
2023/04/06 12:53:27;;;;;;;6.53;3.20;;;12.80;42.20;;;;;;4944593;28;20468;-65
2023/04/06 12:55:55;;;;;;;3.05;2.45;;;12.80;40.70;;;;;;4944784;28;20491;-65
2023/04/06 12:58:22;;;;;;;5.40;2.95;;;12.70;40.20;;;;;;4944789;28;20103;-65
2023/04/06 13:00:49;;;;;;;4.43;2.83;;;12.70;40.00;;;;;;4944461;28;20031;-65